sensor_id;sensor_type;location;lat;lon;timestamp;P1;durP1;ratioP1;P2;durP2;ratioP2
85799;SDS011;76245;47.062;15.440;2024-02-15T00:00:43;6.80;;;3.15;;
85799;SDS011;76245;47.062;15.440;2024-02-15T00:03:10;6.53;;;3.45;;
85799;SDS011;76245;47.062;15.440;2024-02-15T00:05:38;6.18;;;2.95;;
85799;SDS011;76245;47.062;15.440;2024-02-15T00:08:04;6.75;;;4.18;;
85799;SDS011;76245;47.062;15.440;2024-02-15T00:10:31;7.20;;;3.60;;
85799;SDS011;76245;47.062;15.440;2024-02-15T00:12:57;8.95;;;3.85;;
85799;SDS011;76245;47.062;15.440;2024-02-15T00:15:23;6.78;;;3.42;;
85799;SDS011;76245;47.062;15.440;2024-02-15T00:17:49;5.03;;;2.75;;
85799;SDS011;76245;47.062;15.440;2024-02-15T00:20:16;4.72;;;3.15;;
85799;SDS011;76245;47.062;15.440;2024-02-15T00:22:43;5.57;;;2.85;;
85799;SDS011;76245;47.062;15.440;2024-02-15T00:25:09;4.90;;;2.88;;
85799;SDS011;76245;47.062;15.440;2024-02-15T00:27:36;9.77;;;2.75;;
85799;SDS011;76245;47.062;15.440;2024-02-15T00:30:03;5.20;;;2.92;;
85799;SDS011;76245;47.062;15.440;2024-02-15T00:32:30;5.28;;;2.78;;
85799;SDS011;76245;47.062;15.440;2024-02-15T00:34:56;7.32;;;2.42;;
85799;SDS011;76245;47.062;15.440;2024-02-15T00:37:21;5.18;;;2.80;;
85799;SDS011;76245;47.062;15.440;2024-02-15T00:39:47;7.88;;;3.10;;
85799;SDS011;76245;47.062;15.440;2024-02-15T00:42:12;8.77;;;3.13;;
85799;SDS011;76245;47.062;15.440;2024-02-15T00:44:39;5.85;;;2.97;;
85799;SDS011;76245;47.062;15.440;2024-02-15T00:47:04;4.60;;;2.22;;
85799;SDS011;76245;47.062;15.440;2024-02-15T00:49:30;6.43;;;2.70;;
85799;SDS011;76245;47.062;15.440;2024-02-15T00:51:55;4.65;;;2.50;;
85799;SDS011;76245;47.062;15.440;2024-02-15T00:54:24;4.15;;;2.33;;
85799;SDS011;76245;47.062;15.440;2024-02-15T00:56:50;4.07;;;2.35;;
85799;SDS011;76245;47.062;15.440;2024-02-15T00:59:16;6.40;;;2.53;;
85799;SDS011;76245;47.062;15.440;2024-02-15T01:01:43;5.45;;;2.35;;
85799;SDS011;76245;47.062;15.440;2024-02-15T01:04:08;3.72;;;2.13;;
85799;SDS011;76245;47.062;15.440;2024-02-15T01:06:33;6.55;;;2.80;;
85799;SDS011;76245;47.062;15.440;2024-02-15T01:08:59;5.47;;;2.78;;
85799;SDS011;76245;47.062;15.440;2024-02-15T01:11:26;3.88;;;2.40;;
85799;SDS011;76245;47.062;15.440;2024-02-15T01:13:53;5.35;;;2.50;;
85799;SDS011;76245;47.062;15.440;2024-02-15T01:16:19;6.32;;;2.70;;
85799;SDS011;76245;47.062;15.440;2024-02-15T01:18:46;3.75;;;2.17;;
85799;SDS011;76245;47.062;15.440;2024-02-15T01:21:12;4.50;;;2.58;;
85799;SDS011;76245;47.062;15.440;2024-02-15T01:23:38;5.43;;;2.97;;
85799;SDS011;76245;47.062;15.440;2024-02-15T01:26:04;4.25;;;2.47;;
85799;SDS011;76245;47.062;15.440;2024-02-15T01:28:30;4.68;;;2.30;;
85799;SDS011;76245;47.062;15.440;2024-02-15T01:30:56;4.30;;;2.50;;
85799;SDS011;76245;47.062;15.440;2024-02-15T01:33:21;7.05;;;2.50;;
85799;SDS011;76245;47.062;15.440;2024-02-15T01:35:47;5.78;;;2.55;;
85799;SDS011;76245;47.062;15.440;2024-02-15T01:38:14;3.40;;;2.33;;
85799;SDS011;76245;47.062;15.440;2024-02-15T01:40:40;4.35;;;2.35;;
85799;SDS011;76245;47.062;15.440;2024-02-15T01:43:06;4.03;;;2.35;;
85799;SDS011;76245;47.062;15.440;2024-02-15T01:45:31;4.18;;;2.13;;
85799;SDS011;76245;47.062;15.440;2024-02-15T01:47:58;2.95;;;2.10;;
85799;SDS011;76245;47.062;15.440;2024-02-15T01:50:24;4.68;;;2.42;;
85799;SDS011;76245;47.062;15.440;2024-02-15T01:52:51;6.30;;;2.30;;
85799;SDS011;76245;47.062;15.440;2024-02-15T01:55:18;7.13;;;2.55;;
85799;SDS011;76245;47.062;15.440;2024-02-15T01:57:44;7.75;;;2.58;;
85799;SDS011;76245;47.062;15.440;2024-02-15T02:00:12;5.28;;;2.70;;
85799;SDS011;76245;47.062;15.440;2024-02-15T02:02:41;5.00;;;2.42;;
85799;SDS011;76245;47.062;15.440;2024-02-15T02:05:07;6.57;;;2.67;;
85799;SDS011;76245;47.062;15.440;2024-02-15T02:07:33;6.82;;;2.60;;
85799;SDS011;76245;47.062;15.440;2024-02-15T02:09:59;4.97;;;2.70;;
85799;SDS011;76245;47.062;15.440;2024-02-15T02:12:25;5.35;;;2.58;;
85799;SDS011;76245;47.062;15.440;2024-02-15T02:14:53;4.18;;;2.58;;
85799;SDS011;76245;47.062;15.440;2024-02-15T02:17:19;4.70;;;2.90;;
85799;SDS011;76245;47.062;15.440;2024-02-15T02:19:45;4.70;;;2.45;;
85799;SDS011;76245;47.062;15.440;2024-02-15T02:22:11;4.60;;;2.72;;
85799;SDS011;76245;47.062;15.440;2024-02-15T02:25:10;5.93;;;2.90;;
85799;SDS011;76245;47.062;15.440;2024-02-15T02:27:35;5.18;;;2.95;;
85799;SDS011;76245;47.062;15.440;2024-02-15T02:30:04;5.85;;;2.80;;
85799;SDS011;76245;47.062;15.440;2024-02-15T02:32:34;7.57;;;3.17;;
85799;SDS011;76245;47.062;15.440;2024-02-15T02:35:01;6.35;;;2.55;;
85799;SDS011;76245;47.062;15.440;2024-02-15T02:37:27;6.72;;;2.70;;
85799;SDS011;76245;47.062;15.440;2024-02-15T02:39:53;6.32;;;3.60;;
85799;SDS011;76245;47.062;15.440;2024-02-15T02:42:18;6.75;;;3.53;;
85799;SDS011;76245;47.062;15.440;2024-02-15T02:44:46;6.40;;;3.85;;
85799;SDS011;76245;47.062;15.440;2024-02-15T02:47:11;8.68;;;3.75;;
85799;SDS011;76245;47.062;15.440;2024-02-15T02:49:37;5.97;;;4.00;;
85799;SDS011;76245;47.062;15.440;2024-02-15T02:52:03;6.20;;;3.80;;
85799;SDS011;76245;47.062;15.440;2024-02-15T02:54:29;7.68;;;3.80;;
85799;SDS011;76245;47.062;15.440;2024-02-15T02:56:55;7.72;;;3.90;;
85799;SDS011;76245;47.062;15.440;2024-02-15T02:59:20;7.13;;;3.83;;
85799;SDS011;76245;47.062;15.440;2024-02-15T03:01:46;7.93;;;3.72;;
85799;SDS011;76245;47.062;15.440;2024-02-15T03:04:14;7.32;;;3.78;;
85799;SDS011;76245;47.062;15.440;2024-02-15T03:06:42;6.13;;;3.70;;
85799;SDS011;76245;47.062;15.440;2024-02-15T03:09:08;8.25;;;3.72;;
85799;SDS011;76245;47.062;15.440;2024-02-15T03:11:35;6.28;;;3.38;;
85799;SDS011;76245;47.062;15.440;2024-02-15T03:14:02;6.93;;;4.18;;
85799;SDS011;76245;47.062;15.440;2024-02-15T03:16:30;6.25;;;3.53;;
85799;SDS011;76245;47.062;15.440;2024-02-15T03:18:56;5.97;;;3.42;;
85799;SDS011;76245;47.062;15.440;2024-02-15T03:21:21;8.35;;;3.08;;
85799;SDS011;76245;47.062;15.440;2024-02-15T03:23:47;9.18;;;3.42;;
85799;SDS011;76245;47.062;15.440;2024-02-15T03:26:12;7.60;;;3.95;;
85799;SDS011;76245;47.062;15.440;2024-02-15T03:28:39;8.75;;;4.68;;
85799;SDS011;76245;47.062;15.440;2024-02-15T03:31:05;9.50;;;4.50;;
85799;SDS011;76245;47.062;15.440;2024-02-15T03:33:30;10.60;;;5.70;;
85799;SDS011;76245;47.062;15.440;2024-02-15T03:36:00;9.60;;;5.28;;
85799;SDS011;76245;47.062;15.440;2024-02-15T03:38:28;17.23;;;5.97;;
85799;SDS011;76245;47.062;15.440;2024-02-15T03:40:55;10.48;;;4.53;;
85799;SDS011;76245;47.062;15.440;2024-02-15T03:43:21;9.88;;;4.90;;
85799;SDS011;76245;47.062;15.440;2024-02-15T03:45:48;9.93;;;5.20;;
85799;SDS011;76245;47.062;15.440;2024-02-15T03:48:14;9.93;;;4.57;;
85799;SDS011;76245;47.062;15.440;2024-02-15T03:50:40;9.93;;;4.72;;
85799;SDS011;76245;47.062;15.440;2024-02-15T03:53:06;11.10;;;5.15;;
85799;SDS011;76245;47.062;15.440;2024-02-15T03:55:33;14.57;;;5.80;;
85799;SDS011;76245;47.062;15.440;2024-02-15T03:58:01;10.63;;;5.03;;
85799;SDS011;76245;47.062;15.440;2024-02-15T04:00:27;9.98;;;4.93;;
85799;SDS011;76245;47.062;15.440;2024-02-15T04:02:52;14.70;;;5.78;;
85799;SDS011;76245;47.062;15.440;2024-02-15T04:05:18;10.98;;;5.72;;
85799;SDS011;76245;47.062;15.440;2024-02-15T04:07:44;8.45;;;4.72;;
85799;SDS011;76245;47.062;15.440;2024-02-15T04:10:10;8.23;;;5.13;;
85799;SDS011;76245;47.062;15.440;2024-02-15T04:12:35;9.23;;;4.85;;
85799;SDS011;76245;47.062;15.440;2024-02-15T04:15:01;14.27;;;5.18;;
85799;SDS011;76245;47.062;15.440;2024-02-15T04:17:37;12.13;;;4.95;;
85799;SDS011;76245;47.062;15.440;2024-02-15T04:20:03;10.05;;;4.80;;
85799;SDS011;76245;47.062;15.440;2024-02-15T04:22:32;13.73;;;5.13;;
85799;SDS011;76245;47.062;15.440;2024-02-15T04:25:02;7.85;;;4.47;;
85799;SDS011;76245;47.062;15.440;2024-02-15T04:27:29;7.72;;;4.78;;
85799;SDS011;76245;47.062;15.440;2024-02-15T04:29:54;8.80;;;4.70;;
85799;SDS011;76245;47.062;15.440;2024-02-15T04:32:20;8.98;;;4.88;;
85799;SDS011;76245;47.062;15.440;2024-02-15T04:34:46;11.07;;;5.50;;
85799;SDS011;76245;47.062;15.440;2024-02-15T04:37:12;9.95;;;5.00;;
85799;SDS011;76245;47.062;15.440;2024-02-15T04:39:39;7.53;;;4.32;;
85799;SDS011;76245;47.062;15.440;2024-02-15T04:42:05;10.65;;;5.40;;
85799;SDS011;76245;47.062;15.440;2024-02-15T04:44:32;11.88;;;5.97;;
85799;SDS011;76245;47.062;15.440;2024-02-15T04:47:00;8.32;;;4.25;;
85799;SDS011;76245;47.062;15.440;2024-02-15T04:49:27;10.32;;;5.07;;
85799;SDS011;76245;47.062;15.440;2024-02-15T04:51:54;10.27;;;4.95;;
85799;SDS011;76245;47.062;15.440;2024-02-15T04:54:20;10.60;;;5.88;;
85799;SDS011;76245;47.062;15.440;2024-02-15T04:56:46;10.63;;;4.80;;
85799;SDS011;76245;47.062;15.440;2024-02-15T04:59:11;9.18;;;5.40;;
85799;SDS011;76245;47.062;15.440;2024-02-15T05:01:40;10.65;;;6.22;;
85799;SDS011;76245;47.062;15.440;2024-02-15T05:04:08;12.40;;;6.90;;
85799;SDS011;76245;47.062;15.440;2024-02-15T05:06:36;13.82;;;5.43;;
85799;SDS011;76245;47.062;15.440;2024-02-15T05:09:02;15.48;;;6.20;;
85799;SDS011;76245;47.062;15.440;2024-02-15T05:11:32;11.80;;;6.57;;
85799;SDS011;76245;47.062;15.440;2024-02-15T05:14:04;9.82;;;5.47;;
85799;SDS011;76245;47.062;15.440;2024-02-15T05:16:32;11.52;;;5.32;;
85799;SDS011;76245;47.062;15.440;2024-02-15T05:18:58;10.32;;;4.65;;
85799;SDS011;76245;47.062;15.440;2024-02-15T05:21:23;15.68;;;6.10;;
85799;SDS011;76245;47.062;15.440;2024-02-15T05:23:49;10.05;;;5.15;;
85799;SDS011;76245;47.062;15.440;2024-02-15T05:26:14;9.05;;;4.72;;
85799;SDS011;76245;47.062;15.440;2024-02-15T05:28:41;12.07;;;5.82;;
85799;SDS011;76245;47.062;15.440;2024-02-15T05:31:18;10.27;;;5.55;;
85799;SDS011;76245;47.062;15.440;2024-02-15T05:33:52;10.60;;;5.72;;
85799;SDS011;76245;47.062;15.440;2024-02-15T05:36:19;12.20;;;4.82;;
85799;SDS011;76245;47.062;15.440;2024-02-15T05:38:53;9.45;;;4.60;;
85799;SDS011;76245;47.062;15.440;2024-02-15T05:41:19;7.53;;;4.43;;
85799;SDS011;76245;47.062;15.440;2024-02-15T05:43:45;13.85;;;4.85;;
85799;SDS011;76245;47.062;15.440;2024-02-15T05:46:11;9.85;;;4.95;;
85799;SDS011;76245;47.062;15.440;2024-02-15T05:48:37;8.63;;;4.80;;
85799;SDS011;76245;47.062;15.440;2024-02-15T05:51:04;13.30;;;5.53;;
85799;SDS011;76245;47.062;15.440;2024-02-15T05:53:31;9.82;;;6.50;;
85799;SDS011;76245;47.062;15.440;2024-02-15T05:56:10;10.77;;;5.57;;
85799;SDS011;76245;47.062;15.440;2024-02-15T05:58:36;24.02;;;5.57;;
85799;SDS011;76245;47.062;15.440;2024-02-15T06:01:02;11.55;;;6.03;;
85799;SDS011;76245;47.062;15.440;2024-02-15T06:03:31;11.77;;;6.38;;
85799;SDS011;76245;47.062;15.440;2024-02-15T06:06:01;10.05;;;5.38;;
85799;SDS011;76245;47.062;15.440;2024-02-15T06:08:31;13.43;;;5.50;;
85799;SDS011;76245;47.062;15.440;2024-02-15T06:11:00;15.95;;;5.50;;
85799;SDS011;76245;47.062;15.440;2024-02-15T06:13:27;11.63;;;5.32;;
85799;SDS011;76245;47.062;15.440;2024-02-15T06:15:53;8.80;;;4.57;;
85799;SDS011;76245;47.062;15.440;2024-02-15T06:18:19;12.68;;;5.60;;
85799;SDS011;76245;47.062;15.440;2024-02-15T06:20:47;12.57;;;5.10;;
85799;SDS011;76245;47.062;15.440;2024-02-15T06:23:15;10.23;;;4.78;;
85799;SDS011;76245;47.062;15.440;2024-02-15T06:25:43;8.80;;;5.50;;
85799;SDS011;76245;47.062;15.440;2024-02-15T06:28:10;16.30;;;6.20;;
85799;SDS011;76245;47.062;15.440;2024-02-15T06:30:45;15.30;;;5.88;;
85799;SDS011;76245;47.062;15.440;2024-02-15T06:33:29;8.23;;;5.50;;
85799;SDS011;76245;47.062;15.440;2024-02-15T06:36:13;14.68;;;5.90;;
85799;SDS011;76245;47.062;15.440;2024-02-15T06:38:57;10.05;;;5.25;;
85799;SDS011;76245;47.062;15.440;2024-02-15T06:41:41;11.88;;;6.28;;
85799;SDS011;76245;47.062;15.440;2024-02-15T06:44:07;10.75;;;4.90;;
85799;SDS011;76245;47.062;15.440;2024-02-15T06:46:32;11.63;;;5.55;;
85799;SDS011;76245;47.062;15.440;2024-02-15T06:48:58;13.95;;;6.32;;
85799;SDS011;76245;47.062;15.440;2024-02-15T06:51:23;13.82;;;5.53;;
85799;SDS011;76245;47.062;15.440;2024-02-15T06:53:49;10.93;;;6.53;;
85799;SDS011;76245;47.062;15.440;2024-02-15T06:56:16;14.60;;;5.88;;
85799;SDS011;76245;47.062;15.440;2024-02-15T06:58:43;15.32;;;7.15;;
85799;SDS011;76245;47.062;15.440;2024-02-15T07:01:08;10.98;;;6.25;;
85799;SDS011;76245;47.062;15.440;2024-02-15T07:03:34;14.63;;;6.07;;
85799;SDS011;76245;47.062;15.440;2024-02-15T07:05:59;13.32;;;6.53;;
85799;SDS011;76245;47.062;15.440;2024-02-15T07:08:25;12.90;;;6.20;;
85799;SDS011;76245;47.062;15.440;2024-02-15T07:10:50;22.98;;;7.07;;
85799;SDS011;76245;47.062;15.440;2024-02-15T07:13:18;12.63;;;6.55;;
85799;SDS011;76245;47.062;15.440;2024-02-15T07:15:45;15.15;;;7.55;;
85799;SDS011;76245;47.062;15.440;2024-02-15T07:18:10;13.80;;;6.32;;
85799;SDS011;76245;47.062;15.440;2024-02-15T07:20:37;11.40;;;5.40;;
85799;SDS011;76245;47.062;15.440;2024-02-15T07:23:03;12.68;;;5.43;;
85799;SDS011;76245;47.062;15.440;2024-02-15T07:25:28;17.02;;;5.85;;
85799;SDS011;76245;47.062;15.440;2024-02-15T07:27:54;19.40;;;7.20;;
85799;SDS011;76245;47.062;15.440;2024-02-15T07:30:20;15.52;;;6.55;;
85799;SDS011;76245;47.062;15.440;2024-02-15T07:32:45;19.35;;;7.05;;
85799;SDS011;76245;47.062;15.440;2024-02-15T07:35:11;20.08;;;7.15;;
85799;SDS011;76245;47.062;15.440;2024-02-15T07:37:52;18.05;;;7.35;;
85799;SDS011;76245;47.062;15.440;2024-02-15T07:40:23;19.75;;;7.45;;
85799;SDS011;76245;47.062;15.440;2024-02-15T07:42:53;13.02;;;6.03;;
85799;SDS011;76245;47.062;15.440;2024-02-15T07:45:19;20.75;;;7.18;;
85799;SDS011;76245;47.062;15.440;2024-02-15T07:47:45;28.00;;;6.70;;
85799;SDS011;76245;47.062;15.440;2024-02-15T07:50:14;24.55;;;6.90;;
85799;SDS011;76245;47.062;15.440;2024-02-15T07:52:45;20.10;;;8.38;;
85799;SDS011;76245;47.062;15.440;2024-02-15T07:55:10;20.92;;;7.40;;
85799;SDS011;76245;47.062;15.440;2024-02-15T07:57:36;20.15;;;6.75;;
85799;SDS011;76245;47.062;15.440;2024-02-15T08:00:01;23.13;;;7.32;;
85799;SDS011;76245;47.062;15.440;2024-02-15T08:02:31;21.15;;;6.95;;
85799;SDS011;76245;47.062;15.440;2024-02-15T08:04:57;16.42;;;6.05;;
85799;SDS011;76245;47.062;15.440;2024-02-15T08:07:22;22.17;;;7.50;;
85799;SDS011;76245;47.062;15.440;2024-02-15T08:09:48;17.17;;;7.65;;
85799;SDS011;76245;47.062;15.440;2024-02-15T08:12:15;33.15;;;8.80;;
85799;SDS011;76245;47.062;15.440;2024-02-15T08:14:41;19.13;;;7.40;;
85799;SDS011;76245;47.062;15.440;2024-02-15T08:17:07;18.98;;;8.07;;
85799;SDS011;76245;47.062;15.440;2024-02-15T08:19:33;20.55;;;7.55;;
85799;SDS011;76245;47.062;15.440;2024-02-15T08:22:06;19.30;;;7.80;;
85799;SDS011;76245;47.062;15.440;2024-02-15T08:24:31;22.25;;;7.68;;
85799;SDS011;76245;47.062;15.440;2024-02-15T08:26:57;22.98;;;7.22;;
85799;SDS011;76245;47.062;15.440;2024-02-15T08:29:24;17.73;;;7.05;;
85799;SDS011;76245;47.062;15.440;2024-02-15T08:31:50;21.73;;;8.02;;
85799;SDS011;76245;47.062;15.440;2024-02-15T08:34:16;23.42;;;8.55;;
85799;SDS011;76245;47.062;15.440;2024-02-15T08:36:43;17.80;;;7.40;;
85799;SDS011;76245;47.062;15.440;2024-02-15T08:39:09;20.33;;;7.00;;
85799;SDS011;76245;47.062;15.440;2024-02-15T08:41:37;22.50;;;8.25;;
85799;SDS011;76245;47.062;15.440;2024-02-15T08:44:04;22.67;;;8.10;;
85799;SDS011;76245;47.062;15.440;2024-02-15T08:46:34;20.13;;;7.38;;
85799;SDS011;76245;47.062;15.440;2024-02-15T08:49:01;23.02;;;8.23;;
85799;SDS011;76245;47.062;15.440;2024-02-15T08:51:28;18.60;;;7.18;;
85799;SDS011;76245;47.062;15.440;2024-02-15T08:53:55;18.27;;;7.88;;
85799;SDS011;76245;47.062;15.440;2024-02-15T08:56:21;16.83;;;7.85;;
85799;SDS011;76245;47.062;15.440;2024-02-15T08:58:48;15.90;;;6.97;;
85799;SDS011;76245;47.062;15.440;2024-02-15T09:01:14;19.98;;;7.63;;
85799;SDS011;76245;47.062;15.440;2024-02-15T09:03:40;18.48;;;8.57;;
85799;SDS011;76245;47.062;15.440;2024-02-15T09:06:05;18.33;;;6.43;;
85799;SDS011;76245;47.062;15.440;2024-02-15T09:08:32;16.77;;;7.25;;
85799;SDS011;76245;47.062;15.440;2024-02-15T09:10:58;20.77;;;6.60;;
85799;SDS011;76245;47.062;15.440;2024-02-15T09:13:24;15.40;;;6.90;;
85799;SDS011;76245;47.062;15.440;2024-02-15T09:15:50;15.13;;;7.07;;
85799;SDS011;76245;47.062;15.440;2024-02-15T09:18:15;13.20;;;7.15;;
85799;SDS011;76245;47.062;15.440;2024-02-15T09:20:43;16.02;;;8.45;;
85799;SDS011;76245;47.062;15.440;2024-02-15T09:23:10;18.00;;;7.20;;
85799;SDS011;76245;47.062;15.440;2024-02-15T09:25:40;14.65;;;7.50;;
85799;SDS011;76245;47.062;15.440;2024-02-15T09:28:09;20.92;;;7.68;;
85799;SDS011;76245;47.062;15.440;2024-02-15T09:30:35;17.20;;;8.05;;
85799;SDS011;76245;47.062;15.440;2024-02-15T09:33:01;19.10;;;7.18;;
85799;SDS011;76245;47.062;15.440;2024-02-15T09:35:30;18.67;;;7.15;;
85799;SDS011;76245;47.062;15.440;2024-02-15T09:37:56;17.15;;;7.60;;
85799;SDS011;76245;47.062;15.440;2024-02-15T09:40:21;19.80;;;7.32;;
85799;SDS011;76245;47.062;15.440;2024-02-15T09:42:50;23.27;;;8.05;;
85799;SDS011;76245;47.062;15.440;2024-02-15T09:45:17;14.98;;;7.57;;
85799;SDS011;76245;47.062;15.440;2024-02-15T09:47:43;15.45;;;7.38;;
85799;SDS011;76245;47.062;15.440;2024-02-15T09:50:11;17.77;;;6.78;;
85799;SDS011;76245;47.062;15.440;2024-02-15T09:52:39;15.95;;;7.38;;
85799;SDS011;76245;47.062;15.440;2024-02-15T09:55:06;15.15;;;7.90;;
85799;SDS011;76245;47.062;15.440;2024-02-15T09:57:38;11.48;;;7.15;;
85799;SDS011;76245;47.062;15.440;2024-02-15T10:00:04;20.58;;;7.20;;
85799;SDS011;76245;47.062;15.440;2024-02-15T10:02:38;16.80;;;7.72;;
85799;SDS011;76245;47.062;15.440;2024-02-15T10:05:05;19.77;;;7.97;;
85799;SDS011;76245;47.062;15.440;2024-02-15T10:07:31;11.63;;;7.07;;
85799;SDS011;76245;47.062;15.440;2024-02-15T10:09:56;15.73;;;7.50;;
85799;SDS011;76245;47.062;15.440;2024-02-15T10:12:22;12.63;;;6.93;;
85799;SDS011;76245;47.062;15.440;2024-02-15T10:14:48;15.90;;;7.35;;
85799;SDS011;76245;47.062;15.440;2024-02-15T10:17:20;15.63;;;7.47;;
85799;SDS011;76245;47.062;15.440;2024-02-15T10:20:05;18.88;;;7.03;;
85799;SDS011;76245;47.062;15.440;2024-02-15T10:22:31;17.83;;;8.73;;
85799;SDS011;76245;47.062;15.440;2024-02-15T10:25:10;18.30;;;7.45;;
85799;SDS011;76245;47.062;15.440;2024-02-15T10:27:40;19.50;;;8.15;;
85799;SDS011;76245;47.062;15.440;2024-02-15T10:30:16;18.27;;;7.82;;
85799;SDS011;76245;47.062;15.440;2024-02-15T10:32:43;20.58;;;8.93;;
85799;SDS011;76245;47.062;15.440;2024-02-15T10:35:10;15.02;;;7.40;;
85799;SDS011;76245;47.062;15.440;2024-02-15T10:37:40;17.92;;;7.57;;
85799;SDS011;76245;47.062;15.440;2024-02-15T10:40:07;20.83;;;7.72;;
85799;SDS011;76245;47.062;15.440;2024-02-15T10:42:33;12.70;;;5.53;;
85799;SDS011;76245;47.062;15.440;2024-02-15T10:45:04;16.23;;;6.90;;
85799;SDS011;76245;47.062;15.440;2024-02-15T10:47:31;15.75;;;6.90;;
85799;SDS011;76245;47.062;15.440;2024-02-15T10:49:57;22.58;;;7.05;;
85799;SDS011;76245;47.062;15.440;2024-02-15T10:52:24;18.23;;;7.47;;
85799;SDS011;76245;47.062;15.440;2024-02-15T10:54:53;19.90;;;6.53;;
85799;SDS011;76245;47.062;15.440;2024-02-15T10:57:25;13.02;;;6.15;;
85799;SDS011;76245;47.062;15.440;2024-02-15T11:05:06;11.98;;;5.38;;
85799;SDS011;76245;47.062;15.440;2024-02-15T11:07:35;18.55;;;5.88;;
85799;SDS011;76245;47.062;15.440;2024-02-15T11:10:01;15.55;;;6.20;;
85799;SDS011;76245;47.062;15.440;2024-02-15T11:12:31;8.85;;;4.35;;
85799;SDS011;76245;47.062;15.440;2024-02-15T11:14:57;8.02;;;4.95;;
85799;SDS011;76245;47.062;15.440;2024-02-15T11:20:46;16.95;;;4.85;;
85799;SDS011;76245;47.062;15.440;2024-02-15T11:23:08;12.25;;;5.20;;
85799;SDS011;76245;47.062;15.440;2024-02-15T11:25:36;15.35;;;5.15;;
85799;SDS011;76245;47.062;15.440;2024-02-15T11:30:51;9.13;;;4.90;;
85799;SDS011;76245;47.062;15.440;2024-02-15T11:38:40;9.45;;;3.33;;
85799;SDS011;76245;47.062;15.440;2024-02-15T11:41:06;7.00;;;4.10;;
85799;SDS011;76245;47.062;15.440;2024-02-15T11:46:13;11.05;;;3.72;;
85799;SDS011;76245;47.062;15.440;2024-02-15T11:48:39;8.45;;;3.55;;
85799;SDS011;76245;47.062;15.440;2024-02-15T11:51:05;9.07;;;3.67;;
85799;SDS011;76245;47.062;15.440;2024-02-15T11:53:32;9.10;;;4.30;;
85799;SDS011;76245;47.062;15.440;2024-02-15T11:56:01;8.70;;;3.92;;
85799;SDS011;76245;47.062;15.440;2024-02-15T11:58:27;8.00;;;3.55;;
85799;SDS011;76245;47.062;15.440;2024-02-15T12:01:09;6.55;;;3.65;;
85799;SDS011;76245;47.062;15.440;2024-02-15T12:03:54;9.70;;;3.88;;
85799;SDS011;76245;47.062;15.440;2024-02-15T12:06:38;8.00;;;3.67;;
85799;SDS011;76245;47.062;15.440;2024-02-15T12:09:23;6.55;;;3.65;;
85799;SDS011;76245;47.062;15.440;2024-02-15T12:12:09;8.15;;;3.90;;
85799;SDS011;76245;47.062;15.440;2024-02-15T12:17:46;6.78;;;3.75;;
85799;SDS011;76245;47.062;15.440;2024-02-15T12:20:31;8.20;;;3.75;;
85799;SDS011;76245;47.062;15.440;2024-02-15T12:22:57;12.07;;;3.97;;
85799;SDS011;76245;47.062;15.440;2024-02-15T12:25:25;10.30;;;3.60;;
85799;SDS011;76245;47.062;15.440;2024-02-15T12:27:52;10.73;;;4.50;;
85799;SDS011;76245;47.062;15.440;2024-02-15T12:30:19;10.75;;;4.10;;
85799;SDS011;76245;47.062;15.440;2024-02-15T12:32:50;5.30;;;3.17;;
85799;SDS011;76245;47.062;15.440;2024-02-15T12:35:19;8.48;;;3.65;;
85799;SDS011;76245;47.062;15.440;2024-02-15T12:37:46;8.60;;;3.55;;
85799;SDS011;76245;47.062;15.440;2024-02-15T12:40:12;6.28;;;2.97;;
85799;SDS011;76245;47.062;15.440;2024-02-15T12:42:45;7.78;;;3.45;;
85799;SDS011;76245;47.062;15.440;2024-02-15T12:45:18;7.80;;;3.53;;
85799;SDS011;76245;47.062;15.440;2024-02-15T12:47:49;6.50;;;3.45;;
85799;SDS011;76245;47.062;15.440;2024-02-15T12:50:19;7.88;;;2.95;;
85799;SDS011;76245;47.062;15.440;2024-02-15T12:52:47;7.00;;;2.70;;
85799;SDS011;76245;47.062;15.440;2024-02-15T12:55:17;9.18;;;3.30;;
85799;SDS011;76245;47.062;15.440;2024-02-15T12:57:46;8.45;;;3.45;;
85799;SDS011;76245;47.062;15.440;2024-02-15T13:00:14;7.38;;;3.53;;
85799;SDS011;76245;47.062;15.440;2024-02-15T13:02:44;7.18;;;3.17;;
85799;SDS011;76245;47.062;15.440;2024-02-15T13:05:11;10.15;;;3.20;;
85799;SDS011;76245;47.062;15.440;2024-02-15T13:07:37;4.43;;;2.55;;
85799;SDS011;76245;47.062;15.440;2024-02-15T13:10:03;4.80;;;3.00;;
85799;SDS011;76245;47.062;15.440;2024-02-15T13:12:32;5.70;;;2.33;;
85799;SDS011;76245;47.062;15.440;2024-02-15T13:15:01;6.28;;;2.70;;
85799;SDS011;76245;47.062;15.440;2024-02-15T13:17:28;4.65;;;2.55;;
85799;SDS011;76245;47.062;15.440;2024-02-15T13:19:54;11.13;;;3.17;;
85799;SDS011;76245;47.062;15.440;2024-02-15T13:22:28;4.88;;;2.30;;
85799;SDS011;76245;47.062;15.440;2024-02-15T13:24:53;4.03;;;2.08;;
85799;SDS011;76245;47.062;15.440;2024-02-15T13:27:20;7.25;;;2.78;;
85799;SDS011;76245;47.062;15.440;2024-02-15T13:29:49;6.78;;;2.60;;
85799;SDS011;76245;47.062;15.440;2024-02-15T13:32:15;9.60;;;2.58;;
85799;SDS011;76245;47.062;15.440;2024-02-15T13:34:42;5.25;;;2.35;;
85799;SDS011;76245;47.062;15.440;2024-02-15T13:37:10;6.60;;;2.40;;
85799;SDS011;76245;47.062;15.440;2024-02-15T13:39:38;4.35;;;2.03;;
85799;SDS011;76245;47.062;15.440;2024-02-15T13:42:08;6.05;;;2.95;;
85799;SDS011;76245;47.062;15.440;2024-02-15T13:44:35;5.10;;;2.17;;
85799;SDS011;76245;47.062;15.440;2024-02-15T13:47:01;7.68;;;2.08;;
85799;SDS011;76245;47.062;15.440;2024-02-15T13:49:28;3.80;;;2.15;;
85799;SDS011;76245;47.062;15.440;2024-02-15T13:51:56;4.10;;;2.22;;
85799;SDS011;76245;47.062;15.440;2024-02-15T13:54:29;5.90;;;1.90;;
85799;SDS011;76245;47.062;15.440;2024-02-15T13:56:55;4.38;;;2.40;;
85799;SDS011;76245;47.062;15.440;2024-02-15T13:59:22;8.25;;;2.55;;
85799;SDS011;76245;47.062;15.440;2024-02-15T14:01:50;4.75;;;2.08;;
85799;SDS011;76245;47.062;15.440;2024-02-15T14:04:16;6.03;;;2.20;;
85799;SDS011;76245;47.062;15.440;2024-02-15T14:06:41;5.60;;;1.98;;
85799;SDS011;76245;47.062;15.440;2024-02-15T14:09:09;8.30;;;2.63;;
85799;SDS011;76245;47.062;15.440;2024-02-15T14:11:37;5.22;;;2.40;;
85799;SDS011;76245;47.062;15.440;2024-02-15T14:14:03;6.82;;;2.72;;
85799;SDS011;76245;47.062;15.440;2024-02-15T14:16:30;4.05;;;1.73;;
85799;SDS011;76245;47.062;15.440;2024-02-15T14:18:55;4.15;;;1.90;;
85799;SDS011;76245;47.062;15.440;2024-02-15T14:21:21;4.43;;;2.15;;
85799;SDS011;76245;47.062;15.440;2024-02-15T14:23:47;6.82;;;2.60;;
85799;SDS011;76245;47.062;15.440;2024-02-15T14:26:14;7.85;;;2.38;;
85799;SDS011;76245;47.062;15.440;2024-02-15T14:28:41;5.22;;;2.30;;
85799;SDS011;76245;47.062;15.440;2024-02-15T14:31:09;7.85;;;3.15;;
85799;SDS011;76245;47.062;15.440;2024-02-15T14:33:55;4.35;;;2.05;;
85799;SDS011;76245;47.062;15.440;2024-02-15T14:36:21;5.82;;;2.22;;
85799;SDS011;76245;47.062;15.440;2024-02-15T14:38:47;4.57;;;2.13;;
85799;SDS011;76245;47.062;15.440;2024-02-15T14:41:14;7.57;;;2.47;;
85799;SDS011;76245;47.062;15.440;2024-02-15T14:43:39;4.88;;;2.13;;
85799;SDS011;76245;47.062;15.440;2024-02-15T14:46:05;5.05;;;2.10;;
85799;SDS011;76245;47.062;15.440;2024-02-15T14:48:33;6.28;;;2.13;;
85799;SDS011;76245;47.062;15.440;2024-02-15T14:50:59;5.20;;;1.88;;
85799;SDS011;76245;47.062;15.440;2024-02-15T14:53:25;5.38;;;2.03;;